Time;durP1;ratioP1;P1;durP2;ratioP2;P2;SDS_P1;SDS_P2;PMS_P1;PMS_P2;Temp;Humidity;BMP_temperature;BMP_pressure;BME280_temperature;BME280_humidity;BME280_pressure;Samples;Min_cycle;Max_cycle;Signal;HPM_P1;HPM_P2
2021/08/29 00:00:23;;;;;;;1.08;0.50;;;21.10;53.20;;;24.82;36.26;101411.25;5094502;28;20044;-35
2021/08/29 00:02:49;;;;;;;0.50;0.50;;;21.10;53.20;;;24.82;36.24;101414.78;5094463;28;20093;-35
2021/08/29 00:05:15;;;;;;;0.60;0.60;;;21.10;53.80;;;24.83;36.28;101419.19;5094142;28;20052;-35
2021/08/29 00:07:40;;;;;;;0.50;0.50;;;21.10;53.20;;;24.82;36.36;101425.47;5093896;28;20136;-35
2021/08/29 00:10:08;;;;;;;0.50;0.50;;;21.10;53.20;;;24.80;36.33;101419.38;5093956;28;20051;-35
2021/08/29 00:12:35;;;;;;;0.60;0.60;;;21.10;53.30;;;24.82;36.46;101421.97;5093759;28;20083;-35
2021/08/29 00:15:04;;;;;;;0.85;0.40;;;21.10;53.20;;;24.82;36.55;101422.81;5094187;28;20060;-35
2021/08/29 00:17:31;;;;;;;0.40;0.40;;;21.10;53.20;;;24.80;36.34;101422.06;5091720;28;20045;-35
2021/08/29 00:19:57;;;;;;;0.55;0.55;;;21.10;53.20;;;24.78;36.49;101419.50;5094111;28;20139;-35
2021/08/29 00:22:23;;;;;;;0.50;0.50;;;21.10;53.20;;;24.78;36.42;101415.97;5093798;28;20135;-35
2021/08/29 00:24:48;;;;;;;0.52;0.52;;;21.10;53.20;;;24.80;36.33;101416.72;5093565;28;20059;-35
2021/08/29 00:27:14;;;;;;;0.47;0.47;;;21.10;53.30;;;24.80;36.47;101421.22;5093611;28;20467;-34
2021/08/29 00:29:40;;;;;;;0.50;0.50;;;21.10;53.30;;;24.81;36.46;101418.44;5093300;28;20489;-35
2021/08/29 00:32:06;;;;;;;0.40;0.40;;;21.10;53.30;;;24.80;36.52;101416.72;5093378;28;20394;-35
2021/08/29 00:34:32;;;;;;;0.57;0.57;;;21.10;53.30;;;24.77;36.51;101406.22;5074019;28;20517;-35
2021/08/29 00:36:58;;;;;;;0.60;0.60;;;21.10;53.30;;;24.80;36.33;101410.50;5090198;28;20071;-35
2021/08/29 00:39:24;;;;;;;0.52;0.52;;;21.10;53.30;;;24.79;36.26;101414.97;5061949;28;20071;-35
2021/08/29 00:41:50;;;;;;;0.52;0.52;;;21.10;53.30;;;24.73;36.63;101404.75;5091294;28;20094;-35
2021/08/29 00:44:15;;;;;;;0.45;0.45;;;21.10;53.30;;;24.78;36.50;101414.13;5075603;28;20048;-35
2021/08/29 00:46:46;;;;;;;0.60;0.60;;;21.10;53.30;;;24.77;36.40;101414.25;5092085;28;20147;-35
2021/08/29 00:49:20;;;;;;;0.40;0.40;;;21.00;53.30;;;24.77;36.44;101415.13;5058886;28;20071;-35
2021/08/29 00:51:53;;;;;;;0.50;0.50;;;21.10;53.30;;;24.77;36.40;101408.91;5075676;28;20477;-35
2021/08/29 00:54:19;;;;;;;0.50;0.50;;;21.10;53.40;;;24.77;36.42;101412.44;5093481;28;20120;-35
2021/08/29 00:56:44;;;;;;;0.50;0.50;;;21.00;53.30;;;24.76;36.38;101404.53;5074944;28;20485;-35
2021/08/29 00:59:11;;;;;;;0.40;0.40;;;21.10;53.40;;;24.76;36.31;101408.03;5075020;28;20493;-35
2021/08/29 01:01:53;;;;;;;0.60;0.60;;;21.00;53.30;;;24.73;36.42;101402.91;5058435;28;20501;-35
2021/08/29 01:04:25;;;;;;;0.40;0.40;;;21.00;53.40;;;24.73;36.60;101397.56;5058438;28;20048;-35
2021/08/29 01:07:05;;;;;;;0.70;0.63;;;21.00;53.40;;;24.73;36.62;101402.91;5091762;28;20202;-35
2021/08/29 01:09:59;;;;;;;0.50;0.50;;;21.00;53.40;;;24.71;36.46;101391.47;5093173;28;20083;-35
2021/08/29 01:12:39;;;;;;;0.40;0.40;;;21.00;53.40;;;24.72;36.46;101386.97;5090753;28;20074;-35
2021/08/29 01:15:08;;;;;;;0.50;0.50;;;21.00;53.40;;;24.72;36.50;101392.31;5058230;28;20089;-35
2021/08/29 01:17:39;;;;;;;0.50;0.50;;;21.00;53.40;;;24.72;36.46;101392.31;5056534;28;20075;-35
2021/08/29 01:20:17;;;;;;;0.50;0.50;;;21.00;53.40;;;24.70;36.67;101383.56;5074638;28;20044;-35
2021/08/29 01:22:45;;;;;;;0.60;0.60;;;21.00;53.40;;;24.69;36.55;101387.19;5057943;28;20059;-35
2021/08/29 01:25:18;;;;;;;0.50;0.50;;;21.00;53.40;;;24.72;36.57;101393.16;5090820;28;20160;-35
2021/08/29 01:27:56;;;;;;;0.50;0.50;;;21.00;53.40;;;24.70;36.45;101388.91;5074644;28;20379;-35
2021/08/29 01:30:22;;;;;;;1.23;0.60;;;21.00;53.40;;;24.71;36.57;101388.78;5074548;28;20090;-35
2021/08/29 01:32:49;;;;;;;0.55;0.55;;;21.00;53.40;;;24.72;36.43;101385.13;5091400;28;20498;-35
2021/08/29 01:35:16;;;;;;;0.60;0.60;;;21.00;53.40;;;24.71;36.53;101387.94;5075142;28;20167;-35
2021/08/29 01:37:56;;;;;;;;;;;21.00;53.40;;;24.81;36.15;101380.13;5075086;28;20370;-35
2021/08/29 01:40:22;;;;;;;0.63;0.43;;;21.00;53.50;;;24.75;36.49;101379.59;5074470;28;19923;-35
2021/08/29 01:42:48;;;;;;;0.50;0.50;;;21.00;53.40;;;24.74;36.42;101387.72;5057738;28;20076;-35
2021/08/29 01:45:16;;;;;;;0.50;0.50;;;21.00;53.40;;;24.67;36.45;101378.41;5073623;28;20044;-35
2021/08/29 01:47:44;;;;;;;0.60;0.60;;;21.00;53.50;;;24.68;36.45;101380.97;5074244;28;20048;-35
2021/08/29 01:50:11;;;;;;;0.40;0.40;;;21.00;53.50;;;24.69;36.69;101380.03;5074677;28;20083;-35
2021/08/29 01:52:41;;;;;;;0.50;0.50;;;21.00;53.50;;;24.68;36.69;101380.13;5091748;28;20052;-34
2021/08/29 01:55:25;;;;;;;0.40;0.40;;;21.00;53.50;;;24.65;36.61;101383.88;5092619;28;20082;-35
2021/08/29 01:58:14;;;;;;;0.60;0.60;;;21.00;53.50;;;24.68;36.37;101382.81;5091918;28;20481;-35
2021/08/29 02:00:51;;;;;;;0.50;0.50;;;21.00;53.50;;;24.64;36.66;101370.59;5092879;28;20055;-35
2021/08/29 02:03:21;;;;;;;0.60;0.60;;;21.00;53.50;;;24.65;36.53;101370.50;5091152;28;20477;-35
2021/08/29 02:06:18;;;;;;;0.50;0.50;;;20.90;53.40;;;24.66;36.72;101377.56;5090991;28;20058;-35
2021/08/29 02:08:59;;;;;;;0.60;0.60;;;20.90;53.50;;;24.65;36.53;101380.34;5057245;28;20055;-35
2021/08/29 02:11:29;;;;;;;0.50;0.50;;;21.00;53.50;;;24.67;36.62;101370.38;5057611;28;20063;-35
2021/08/29 02:14:02;;;;;;;0.43;0.43;;;20.90;53.50;;;24.70;36.44;101380.88;5091547;28;20055;-35
2021/08/29 02:16:39;;;;;;;0.55;0.52;;;21.00;53.50;;;24.64;36.54;101373.28;5057533;28;20048;-35
2021/08/29 02:19:06;;;;;;;0.50;0.50;;;21.00;53.50;;;24.70;36.70;101388.91;5056889;28;20052;-35
2021/08/29 02:21:34;;;;;;;0.60;0.60;;;21.00;53.60;;;24.64;36.74;101368.81;5073141;28;20592;-35
2021/08/29 02:24:04;;;;;;;0.88;0.60;;;20.90;53.50;;;24.65;36.71;101373.16;5057832;28;20048;-35
2021/08/29 02:26:31;;;;;;;0.50;0.50;;;20.90;53.50;;;24.66;36.46;101382.91;5090835;28;20048;-35
2021/08/29 02:29:09;;;;;;;0.60;0.60;;;20.90;53.50;;;24.65;36.57;101372.31;5058537;28;20052;-35
2021/08/29 02:31:36;;;;;;;0.63;0.60;;;21.00;53.60;;;24.64;36.69;101370.59;5074020;28;20052;-35
2021/08/29 02:34:03;;;;;;;1.05;0.40;;;20.90;53.50;;;24.62;36.52;101365.34;5073755;28;20041;-35
2021/08/29 02:36:30;;;;;;;0.50;0.50;;;20.90;53.50;;;24.61;36.99;101366.34;5058863;28;20480;-35
2021/08/29 02:38:57;;;;;;;0.52;0.52;;;20.90;53.50;;;24.62;36.80;101359.16;5094385;28;20044;-35
2021/08/29 02:41:23;;;;;;;0.50;0.50;;;20.90;53.50;;;24.62;36.70;101365.34;5060450;28;20087;-35
2021/08/29 02:43:52;;;;;;;0.60;0.60;;;20.90;53.50;;;24.64;36.71;101359.91;5077492;28;20052;-35
2021/08/29 02:46:18;;;;;;;0.60;0.60;;;20.90;53.60;;;24.64;36.54;101363.47;5077242;28;20052;-35
2021/08/29 02:48:45;;;;;;;0.57;0.57;;;20.90;53.60;;;24.62;36.44;101356.50;5077056;28;20048;-35
2021/08/29 02:51:14;;;;;;;0.52;0.52;;;20.90;53.60;;;24.63;36.71;101361.72;5077336;28;20079;-35
2021/08/29 02:53:43;;;;;;;;;;;20.90;53.60;;;24.72;36.46;101358.41;5071978;28;20079;-35
2021/08/29 02:56:10;;;;;;;0.40;0.40;;;20.90;53.60;;;24.69;36.43;101360.44;5076974;28;19959;-35
2021/08/29 02:58:40;;;;;;;0.52;0.52;;;20.90;53.60;;;24.65;36.71;101357.13;5077197;28;21809;-35
2021/08/29 03:01:16;;;;;;;0.50;0.50;;;20.90;53.60;;;24.62;36.82;101353.81;5077387;28;20135;-35
2021/08/29 03:04:00;;;;;;;0.60;0.60;;;20.90;53.60;;;24.63;36.76;101360.88;5095233;28;20048;-35
2021/08/29 03:06:27;;;;;;;0.60;0.60;;;20.90;53.60;;;24.58;36.69;101354.03;5077012;28;20575;-35
2021/08/29 03:08:54;;;;;;;0.50;0.50;;;20.90;53.60;;;24.59;36.45;101355.75;5092862;28;20486;-35
2021/08/29 03:11:22;;;;;;;0.70;0.70;;;20.90;53.60;;;24.62;36.83;101360.00;5093567;28;20039;-35
2021/08/29 03:13:49;;;;;;;0.70;0.50;;;20.90;54.10;;;24.59;36.72;101349.53;5060181;28;20098;-35
2021/08/29 03:16:16;;;;;;;0.70;0.60;;;20.90;53.60;;;24.58;36.57;101348.69;5076800;28;20444;-35
2021/08/29 03:18:47;;;;;;;0.52;0.52;;;20.90;53.60;;;24.60;36.83;101345.91;5077151;28;20040;-35
2021/08/29 03:21:32;;;;;;;0.57;0.57;;;20.90;53.60;;;24.59;36.75;101345.06;5095197;28;20188;-35
2021/08/29 03:23:59;;;;;;;0.70;0.70;;;20.90;53.70;;;24.59;36.82;101345.06;5094680;28;20104;-35
2021/08/29 03:26:25;;;;;;;0.75;0.63;;;20.90;53.70;;;24.59;36.56;101338.81;5076410;28;20048;-35
2021/08/29 03:28:54;;;;;;;0.60;0.60;;;20.90;53.60;;;24.57;36.84;101336.28;5076296;28;20083;-35
2021/08/29 03:31:20;;;;;;;0.50;0.50;;;20.90;53.70;;;24.58;36.82;101343.31;5094702;28;20389;-35
2021/08/29 03:33:47;;;;;;;0.50;0.50;;;20.80;53.60;;;24.57;36.54;101338.09;5094926;28;20048;-35
2021/08/29 03:36:21;;;;;;;0.52;0.52;;;20.90;53.70;;;24.55;36.64;101335.53;5092728;28;20444;-34
2021/08/29 03:38:50;;;;;;;0.50;0.50;;;20.80;53.60;;;24.59;36.82;101336.16;5076530;28;20051;-35
2021/08/29 03:41:18;;;;;;;0.50;0.50;;;20.90;53.70;;;24.58;36.87;101339.81;5076508;28;20071;-34
2021/08/29 03:43:45;;;;;;;0.60;0.60;;;20.90;53.70;;;24.58;36.50;101332.63;5076225;28;20044;-35
2021/08/29 03:46:16;;;;;;;0.40;0.40;;;20.90;53.70;;;24.58;36.85;101331.78;5076688;28;20185;-35
2021/08/29 03:48:45;;;;;;;0.55;0.55;;;20.90;53.70;;;24.53;36.71;101324.06;5075973;28;20071;-35
2021/08/29 03:51:17;;;;;;;0.70;0.60;;;20.90;53.70;;;24.58;36.65;101337.13;5093575;28;20066;-35
2021/08/29 03:53:44;;;;;;;0.50;0.50;;;20.90;54.20;;;24.56;36.58;101334.56;5092917;28;20040;-35
2021/08/29 03:56:11;;;;;;;0.50;0.50;;;20.80;53.70;;;24.55;36.53;101324.81;5075994;28;20052;-35
2021/08/29 03:58:42;;;;;;;0.60;0.60;;;20.80;53.70;;;24.54;36.87;101324.91;5074634;28;20040;-35
2021/08/29 04:01:09;;;;;;;0.50;0.50;;;20.90;53.70;;;24.56;36.68;101331.06;5094371;28;20070;-35
2021/08/29 04:03:35;;;;;;;0.50;0.50;;;20.80;53.70;;;24.54;36.80;101323.09;5090799;28;20048;-35
2021/08/29 04:06:04;;;;;;;1.00;0.77;;;20.90;53.70;;;24.53;36.83;101326.72;5094432;28;20050;-35
2021/08/29 04:08:37;;;;;;;0.55;0.50;;;20.90;53.70;;;24.54;36.89;101328.44;5059131;28;20485;-36
2021/08/29 04:11:06;;;;;;;0.50;0.50;;;20.80;53.70;;;24.53;36.98;101317.84;5075712;28;20074;-35
2021/08/29 04:13:37;;;;;;;0.60;0.60;;;20.90;53.80;;;24.57;36.65;101330.06;5093010;28;20233;-35
2021/08/29 04:16:12;;;;;;;0.50;0.50;;;20.90;53.80;;;24.54;36.72;101322.22;5093276;28;20090;-35
2021/08/29 04:18:43;;;;;;;0.50;0.50;;;20.90;53.80;;;24.54;36.66;101333.78;5092405;28;20048;-35
2021/08/29 04:21:13;;;;;;;0.50;0.50;;;20.90;53.80;;;24.53;36.71;101331.22;5076354;28;20496;-35
2021/08/29 04:23:40;;;;;;;0.55;0.55;;;20.90;53.80;;;24.54;36.88;101330.25;5075708;28;20127;-35
2021/08/29 04:26:09;;;;;;;0.50;0.50;;;20.90;53.80;;;24.51;36.74;101328.66;5075763;28;20094;-35
2021/08/29 04:28:36;;;;;;;0.55;0.55;;;20.90;53.80;;;24.51;36.92;101326.00;5092079;28;20039;-35
2021/08/29 04:31:09;;;;;;;0.57;0.57;;;20.90;53.80;;;24.49;36.79;101327.91;5091843;28;20044;-34
2021/08/29 04:33:41;;;;;;;0.50;0.50;;;20.90;53.80;;;24.55;36.88;101337.34;5091362;28;20048;-35
2021/08/29 04:36:33;;;;;;;0.50;0.50;;;20.80;53.70;;;24.52;36.63;101329.50;5076143;28;20035;-35
2021/08/29 04:39:08;;;;;;;0.73;0.73;;;20.80;53.70;;;24.52;36.77;101334.84;5059098;28;20059;-35
2021/08/29 04:41:35;;;;;;;0.70;0.70;;;20.80;53.70;;;24.53;36.74;101333.91;5092556;28;20048;-35
2021/08/29 04:44:02;;;;;;;0.47;0.47;;;20.80;53.70;;;24.52;36.89;101335.69;5092691;28;20051;-35
2021/08/29 04:46:30;;;;;;;0.57;0.57;;;20.80;53.70;;;24.53;36.89;101339.25;5075695;28;20558;-35
2021/08/29 04:48:56;;;;;;;0.70;0.70;;;20.80;53.80;;;24.50;36.90;101334.94;5075089;28;20043;-35
2021/08/29 04:51:21;;;;;;;0.50;0.50;;;20.80;53.80;;;24.53;36.94;101341.91;5075201;28;20048;-35
2021/08/29 04:53:47;;;;;;;0.60;0.60;;;20.80;53.80;;;24.50;36.74;101332.28;5092491;28;20374;-35
2021/08/29 04:56:13;;;;;;;0.40;0.40;;;20.80;53.80;;;24.52;36.77;101335.69;5093297;28;20054;-35
2021/08/29 04:58:41;;;;;;;0.50;0.50;;;20.80;53.80;;;24.50;36.80;101328.75;5074435;28;20048;-34
2021/08/29 05:01:08;;;;;;;0.55;0.52;;;20.80;53.80;;;24.49;36.74;101319.03;5075616;28;20048;-34
2021/08/29 05:03:37;;;;;;;0.40;0.40;;;20.80;53.80;;;24.52;36.78;101341.03;5075375;28;20040;-35
2021/08/29 05:06:03;;;;;;;0.50;0.50;;;20.80;53.80;;;24.51;36.80;101335.84;5091987;28;20091;-35
2021/08/29 05:08:30;;;;;;;0.57;0.57;;;20.80;53.80;;;24.50;36.96;101340.31;5075348;28;20139;-35
2021/08/29 05:10:56;;;;;;;0.63;0.63;;;20.80;53.80;;;24.50;36.86;101334.94;5093131;28;20124;-35
2021/08/29 05:13:22;;;;;;;0.50;0.50;;;20.80;53.80;;;24.50;36.67;101334.94;5092260;28;20377;-34
2021/08/29 05:15:48;;;;;;;0.52;0.52;;;20.80;53.80;;;24.51;36.79;101334.00;5075296;28;20105;-34
2021/08/29 05:18:15;;;;;;;0.60;0.60;;;20.80;53.80;;;24.53;36.94;101339.25;5089863;28;20095;-35
2021/08/29 05:20:54;;;;;;;0.60;0.60;;;20.80;53.70;;;24.53;36.90;101331.22;5074809;28;20056;-35
2021/08/29 05:23:38;;;;;;;0.57;0.57;;;20.80;53.80;;;24.53;36.72;101340.09;5093349;28;20050;-35
2021/08/29 05:26:12;;;;;;;0.60;0.60;;;20.80;53.80;;;24.53;36.68;101345.44;5091532;28;20048;-35
2021/08/29 05:28:38;;;;;;;0.52;0.52;;;20.80;53.80;;;24.53;36.69;101342.75;5057162;28;20135;-35
2021/08/29 05:31:04;;;;;;;0.57;0.57;;;20.80;53.80;;;24.51;36.68;101336.69;5091842;28;20048;-35
2021/08/29 05:33:31;;;;;;;0.73;0.68;;;20.80;53.70;;;24.51;36.71;101335.84;5091533;28;20051;-35
2021/08/29 05:35:56;;;;;;;0.50;0.50;;;20.80;53.80;;;24.55;36.62;101348.03;5075077;28;20044;-35
2021/08/29 05:38:24;;;;;;;0.50;0.50;;;20.80;53.70;;;24.54;36.65;101343.63;5074340;28;20044;-35
2021/08/29 05:41:09;;;;;;;0.70;0.70;;;20.80;53.70;;;24.54;36.60;101341.81;5093098;28;20405;-35
2021/08/29 05:43:44;;;;;;;0.40;0.40;;;20.90;53.70;;;24.55;36.86;101345.38;5092777;28;20055;-35
2021/08/29 05:46:13;;;;;;;0.50;0.50;;;20.90;53.80;;;24.54;36.59;101344.50;5074682;28;20511;-35
2021/08/29 05:48:39;;;;;;;0.50;0.50;;;20.90;53.70;;;24.54;36.80;101344.50;5073244;28;20048;-36
2021/08/29 05:51:06;;;;;;;0.60;0.60;;;20.80;53.70;;;24.57;36.75;101354.13;5089826;28;20045;-34
2021/08/29 05:53:33;;;;;;;0.60;0.60;;;20.90;53.70;;;24.58;36.77;101342.47;5091247;28;20161;-35
2021/08/29 05:55:58;;;;;;;0.52;0.52;;;20.90;53.70;;;24.56;36.54;101347.09;5074537;28;20044;-35
2021/08/29 05:58:24;;;;;;;0.50;0.50;;;20.80;53.70;;;24.58;36.58;101346.00;5089803;28;20067;-35
2021/08/29 06:00:50;;;;;;;0.70;0.63;;;20.80;53.70;;;24.57;36.84;101346.09;5074174;28;20048;-34
2021/08/29 06:03:16;;;;;;;0.50;0.50;;;20.80;53.70;;;24.57;36.79;101341.63;5074390;28;20048;-35
2021/08/29 06:05:42;;;;;;;0.60;0.60;;;20.80;53.70;;;24.58;36.56;101346.00;5074442;28;20040;-35
2021/08/29 06:08:15;;;;;;;0.50;0.50;;;20.80;53.60;;;24.59;36.76;101347.72;5073494;28;20082;-35
2021/08/29 06:10:43;;;;;;;0.52;0.52;;;20.80;53.60;;;24.59;36.63;101350.41;5092995;28;20434;-35
2021/08/29 06:13:10;;;;;;;0.73;0.70;;;20.80;53.60;;;24.60;36.60;101349.41;5077690;28;20477;-35
2021/08/29 06:15:38;;;;;;;0.50;0.50;;;20.90;53.70;;;24.58;36.84;101348.69;5094534;28;20052;-35
2021/08/29 06:18:06;;;;;;;0.55;0.55;;;20.80;53.60;;;24.59;36.59;101341.50;5072127;28;20056;-34
2021/08/29 06:20:32;;;;;;;0.70;0.70;;;20.90;53.60;;;24.59;36.77;101338.81;5095664;28;20052;-35
2021/08/29 06:22:58;;;;;;;0.45;0.45;;;20.90;53.60;;;24.61;36.60;101339.59;5094426;28;20062;-35
2021/08/29 06:25:53;;;;;;;0.57;0.57;;;20.80;53.60;;;24.62;36.46;101343.13;5095491;28;20048;-35
2021/08/29 06:28:38;;;;;;;0.50;0.50;;;20.90;53.60;;;24.59;36.47;101334.34;5096235;28;20132;-35
2021/08/29 06:31:22;;;;;;;0.50;0.50;;;20.80;53.50;;;24.64;36.62;101343.88;5096273;28;20512;-35
2021/08/29 06:34:06;;;;;;;0.60;0.60;;;20.90;53.50;;;24.61;36.52;101336.94;5095989;28;20051;-34
2021/08/29 06:36:35;;;;;;;0.55;0.55;;;20.90;53.60;;;24.66;36.67;101347.28;5077177;28;20047;-34
2021/08/29 06:39:03;;;;;;;0.50;0.50;;;20.90;53.50;;;24.65;36.49;101342.91;5075742;28;20045;-34
2021/08/29 06:41:28;;;;;;;0.50;0.50;;;20.90;53.50;;;24.66;36.48;101342.81;5095368;28;20044;-35
2021/08/29 06:43:57;;;;;;;0.50;0.50;;;20.90;53.60;;;24.66;36.54;101349.94;5077292;28;20040;-35
2021/08/29 06:46:41;;;;;;;0.52;0.50;;;20.90;53.50;;;24.66;36.57;101339.25;5095745;28;20086;-35
2021/08/29 06:49:26;;;;;;;0.40;0.40;;;20.90;53.50;;;24.64;36.59;101341.19;5095978;28;20051;-35
2021/08/29 06:52:24;;;;;;;0.50;0.50;;;20.90;53.50;;;24.65;36.60;101341.09;5094941;28;20040;-35
2021/08/29 06:55:09;;;;;;;0.60;0.60;;;20.90;53.50;;;24.65;36.60;101338.41;5095642;28;20051;-35
2021/08/29 06:58:04;;;;;;;0.60;0.60;;;20.90;53.50;;;24.65;36.40;101337.56;5094797;28;20049;-34
2021/08/29 07:00:30;;;;;;;0.60;0.60;;;20.90;53.50;;;24.62;36.54;101319.91;5076933;28;20044;-35
2021/08/29 07:02:59;;;;;;;0.52;0.52;;;20.90;53.50;;;24.63;36.54;101326.13;5076829;28;20052;-35
2021/08/29 07:05:26;;;;;;;0.50;0.50;;;20.90;53.60;;;24.64;36.44;101330.50;5095370;28;20048;-35
2021/08/29 07:08:15;;;;;;;0.40;0.40;;;20.90;53.50;;;24.64;36.38;101328.69;5065164;28;20045;-35
2021/08/29 07:10:44;;;;;;;0.47;0.47;;;20.90;53.50;;;24.67;36.56;101335.63;5076842;28;20431;-34
2021/08/29 07:13:30;;;;;;;0.50;0.50;;;20.90;53.50;;;24.64;36.53;101326.03;5095102;28;20527;-35
2021/08/29 07:15:57;;;;;;;0.47;0.47;;;20.90;53.50;;;24.68;36.54;101334.69;5076946;28;20377;-35
2021/08/29 07:18:23;;;;;;;0.60;0.60;;;20.90;53.50;;;24.68;36.61;101329.34;5076685;28;20055;-34
2021/08/29 07:21:24;;;;;;;;;;;20.90;53.50;;;24.81;36.42;101338.19;5032378;28;20487;-34
2021/08/29 07:24:08;;;;;;;0.55;0.50;;;20.90;53.40;;;24.74;36.36;101335.09;5089806;28;19974;-35
2021/08/29 07:26:52;;;;;;;0.60;0.60;;;20.90;53.40;;;24.71;36.49;101334.47;5095159;28;20058;-35
2021/08/29 07:29:37;;;;;;;0.50;0.50;;;20.90;53.40;;;24.70;36.35;101336.25;5094716;28;20059;-35
2021/08/29 07:32:18;;;;;;;0.50;0.50;;;20.90;53.40;;;24.72;36.29;101338.84;5094596;28;20393;-34
2021/08/29 07:34:43;;;;;;;0.57;0.52;;;20.90;53.30;;;24.73;36.26;101336.06;5076450;28;20040;-34
2021/08/29 07:37:43;;;;;;;0.60;0.60;;;21.00;53.40;;;24.77;36.18;101342.03;5092893;28;20048;-35
2021/08/29 07:40:10;;;;;;;0.50;0.50;;;21.00;53.30;;;24.77;36.23;101342.91;5076362;28;20131;-35
2021/08/29 07:42:37;;;;;;;0.60;0.60;;;21.00;53.30;;;24.76;36.18;101341.19;5093191;28;20055;-35
2021/08/29 07:45:05;;;;;;;0.43;0.43;;;21.00;53.30;;;24.78;36.21;101341.09;5073025;28;20044;-35
2021/08/29 07:47:32;;;;;;;0.60;0.60;;;21.00;53.20;;;24.78;36.16;101338.41;5075914;28;20052;-35
2021/08/29 07:49:58;;;;;;;0.43;0.43;;;21.00;53.20;;;24.81;36.15;101340.00;5094642;28;20044;-35
2021/08/29 07:52:24;;;;;;;0.50;0.50;;;21.00;53.20;;;24.83;36.30;101348.78;5092818;28;20429;-35
2021/08/29 07:55:09;;;;;;;0.40;0.40;;;21.00;53.20;;;24.81;36.07;101345.34;5094462;28;20055;-34
2021/08/29 07:57:53;;;;;;;0.50;0.50;;;21.00;53.20;;;24.85;36.26;101352.19;5094591;28;20143;-35
2021/08/29 08:00:28;;;;;;;0.50;0.50;;;21.00;53.20;;;24.82;36.12;101353.25;5093188;28;20444;-35
2021/08/29 08:03:12;;;;;;;0.50;0.50;;;21.00;53.20;;;24.80;36.10;101352.53;5094566;28;20099;-35
2021/08/29 08:06:07;;;;;;;0.70;0.70;;;21.00;53.20;;;24.84;36.23;101358.50;5076339;28;20131;-35
2021/08/29 08:08:54;;;;;;;0.47;0.47;;;21.00;53.20;;;24.83;36.06;101357.66;5094215;28;20067;-35
2021/08/29 08:11:46;;;;;;;0.60;0.60;;;21.00;53.70;;;24.82;36.14;101355.94;5069985;28;20048;-35
2021/08/29 08:14:14;;;;;;;0.50;0.50;;;21.00;53.20;;;24.84;36.22;101358.50;5092675;28;20114;-35
2021/08/29 08:16:41;;;;;;;0.60;0.60;;;21.00;53.20;;;24.83;36.18;101357.66;5072966;28;20518;-35
2021/08/29 08:19:34;;;;;;;0.75;0.75;;;21.00;53.20;;;24.86;36.03;101359.25;5089715;28;20057;-35
2021/08/29 08:22:00;;;;;;;0.60;0.60;;;21.00;53.10;;;24.87;36.11;101356.47;5094353;28;20172;-35
2021/08/29 08:24:37;;;;;;;0.50;0.50;;;21.10;53.10;;;24.85;35.97;101353.06;5093165;28;20339;-35
2021/08/29 08:27:23;;;;;;;0.50;0.50;;;21.10;53.10;;;24.91;35.91;101352.63;5093653;28;20048;-35
2021/08/29 08:30:10;;;;;;;0.40;0.40;;;21.10;53.10;;;24.89;36.08;101343.88;5093910;28;20050;-35
2021/08/29 08:33:05;;;;;;;0.52;0.52;;;21.10;53.00;;;24.95;36.02;101350.59;5038684;28;20045;-35
2021/08/29 08:35:49;;;;;;;0.90;0.60;;;21.10;52.90;;;24.98;35.91;101353.03;5093798;28;20090;-35
2021/08/29 08:38:29;;;;;;;0.47;0.47;;;21.10;52.90;;;24.94;35.71;101349.72;5075243;28;20063;-35
2021/08/29 08:41:19;;;;;;;0.52;0.52;;;21.10;52.90;;;24.99;35.79;101352.06;5031505;28;20061;-35
2021/08/29 08:44:04;;;;;;;0.50;0.50;;;21.20;52.90;;;25.02;35.92;101351.84;5093862;28;20117;-35
2021/08/29 08:46:51;;;;;;;0.52;0.50;;;21.20;52.90;;;25.00;35.88;101350.25;5093389;28;20055;-35
2021/08/29 08:49:37;;;;;;;0.60;0.60;;;21.20;52.80;;;25.05;35.87;101358.81;5091544;28;20051;-35
2021/08/29 08:52:25;;;;;;;0.40;0.40;;;21.20;52.80;;;25.08;35.83;101366.63;5093823;28;20406;-35
2021/08/29 08:55:11;;;;;;;0.50;0.50;;;21.20;52.70;;;25.10;35.80;101359.34;5093790;28;20089;-35
2021/08/29 08:57:56;;;;;;;0.70;0.70;;;21.30;52.60;;;25.15;35.66;101360.69;5092130;28;20067;-35
2021/08/29 09:00:39;;;;;;;0.40;0.40;;;21.30;52.60;;;25.17;35.59;101360.59;5075475;28;20182;-35
2021/08/29 09:03:24;;;;;;;0.68;0.68;;;21.30;53.10;;;25.17;35.35;101355.25;5093377;28;20063;-35
2021/08/29 09:06:08;;;;;;;0.50;0.50;;;21.30;52.50;;;25.23;35.49;101360.16;5075535;28;20469;-35
2021/08/29 09:08:35;;;;;;;0.47;0.47;;;21.30;52.50;;;25.22;35.36;101353.09;5074813;28;20048;-35
2021/08/29 09:11:02;;;;;;;0.50;0.50;;;21.30;52.40;;;25.28;35.38;101357.19;5093168;28;20123;-35
2021/08/29 09:13:49;;;;;;;0.50;0.50;;;21.40;52.30;;;25.30;35.38;101358.78;5074899;28;20087;-35
2021/08/29 09:16:19;;;;;;;0.50;0.50;;;21.40;52.30;;;25.29;35.32;101349.06;5091597;28;20054;-35
2021/08/29 09:18:57;;;;;;;0.50;0.50;;;21.40;52.30;;;25.32;35.19;101364.84;5091756;28;20054;-35
2021/08/29 09:21:38;;;;;;;0.50;0.50;;;21.40;52.20;;;25.34;35.16;101359.41;5074011;28;20552;-35
2021/08/29 09:24:15;;;;;;;0.55;0.55;;;21.40;52.20;;;25.39;34.98;101362.59;5091729;28;20086;-35
2021/08/29 09:27:16;;;;;;;0.50;0.50;;;21.40;52.20;;;25.37;35.17;101358.34;5069918;28;20044;-35
2021/08/29 09:30:03;;;;;;;0.60;0.60;;;21.40;52.10;;;25.37;35.31;101371.72;5078106;28;20055;-35
2021/08/29 09:32:32;;;;;;;0.50;0.50;;;21.40;52.20;;;25.35;35.11;101366.47;5074619;28;20048;-35
2021/08/29 09:35:10;;;;;;;0.50;0.50;;;21.40;52.30;;;25.30;35.17;101363.28;5072997;28;20048;-35
2021/08/29 09:37:59;;;;;;;;;;;21.30;52.30;;;25.44;35.16;101373.84;5092632;28;20106;-35
2021/08/29 09:41:00;;;;;;;;;;;21.30;52.30;;;25.45;34.82;101364.81;5092938;28;19915;-35
2021/08/29 09:43:40;;;;;;;0.70;0.57;;;21.30;52.40;;;25.31;35.12;101365.84;5076969;28;19916;-35
2021/08/29 09:46:07;;;;;;;0.70;0.70;;;21.30;52.40;;;25.28;35.11;101362.53;5073834;28;20078;-35
2021/08/29 09:48:56;;;;;;;0.40;0.40;;;21.30;52.40;;;25.26;35.45;101369.78;5092477;28;20535;-35
2021/08/29 09:51:46;;;;;;;0.50;0.50;;;21.30;52.40;;;25.24;35.36;101371.72;5092551;28;20055;-35
2021/08/29 09:54:41;;;;;;;0.40;0.40;;;21.30;52.50;;;25.22;35.38;101376.31;5091360;28;20189;-35
2021/08/29 09:57:25;;;;;;;0.50;0.50;;;21.30;52.40;;;25.23;35.41;101370.88;5089617;28;20084;-35
2021/08/29 10:00:18;;;;;;;0.93;0.68;;;21.30;52.40;;;25.23;35.29;101367.34;5074485;28;20062;-35
2021/08/29 10:03:04;;;;;;;;;;;21.30;52.40;;;25.33;35.15;101371.09;5091996;28;20044;-35
2021/08/29 10:05:37;;;;;;;0.40;0.40;;;21.30;52.50;;;25.24;35.33;101377.06;5074024;28;19937;-34
2021/08/29 10:08:07;;;;;;;0.40;0.40;;;21.30;52.60;;;25.16;35.55;101380.31;5074133;28;20048;-35
2021/08/29 10:10:42;;;;;;;0.40;0.40;;;21.20;52.50;;;25.15;35.52;101374.06;5074451;28;20048;-35
2021/08/29 10:13:13;;;;;;;0.50;0.50;;;21.20;52.60;;;25.14;35.67;101371.50;5074070;28;20117;-35
2021/08/29 10:15:42;;;;;;;0.45;0.45;;;21.30;52.70;;;25.16;35.50;101374.97;5073856;28;20091;-35
2021/08/29 10:18:47;;;;;;;0.50;0.50;;;21.30;52.70;;;25.14;35.45;101377.75;5091940;28;20040;-35
2021/08/29 10:21:32;;;;;;;0.63;0.63;;;21.30;52.80;;;25.14;35.67;101372.38;5092169;28;20067;-35
2021/08/29 10:23:59;;;;;;;0.40;0.40;;;21.30;52.80;;;25.14;35.53;101363.47;5090774;28;20413;-35
2021/08/29 10:26:26;;;;;;;0.50;0.50;;;21.30;52.80;;;25.18;35.77;101374.84;5090846;28;20048;-35
2021/08/29 10:29:19;;;;;;;0.50;0.50;;;21.30;52.90;;;25.18;35.60;101373.03;5091875;28;20052;-35
2021/08/29 10:32:13;;;;;;;0.50;0.50;;;21.30;52.90;;;25.19;35.71;101376.53;5076560;28;20056;-35
2021/08/29 10:34:45;;;;;;;0.50;0.50;;;21.30;52.80;;;25.20;35.58;101376.44;5073597;28;20048;-35
2021/08/29 10:37:11;;;;;;;0.40;0.40;;;21.30;52.80;;;25.20;35.68;101379.09;5074274;28;20044;-35
2021/08/29 10:39:49;;;;;;;0.50;0.50;;;21.30;52.80;;;25.22;35.77;101377.16;5092283;28;20101;-35